createdAt,value
2022-12-25T00:00:55.447Z,6.53
2022-12-25T00:03:22.987Z,6.47
2022-12-25T00:05:49.868Z,6.20
2022-12-25T00:08:17.116Z,6.50
2022-12-25T00:10:45.589Z,5.75
2022-12-25T00:13:12.698Z,6.13
2022-12-25T00:15:41.528Z,5.80
2022-12-25T00:18:08.362Z,6.30
2022-12-25T00:20:35.143Z,6.45
2022-12-25T00:23:01.870Z,6.28
2022-12-25T00:25:28.790Z,5.47
2022-12-25T00:27:55.672Z,6.10
2022-12-25T00:30:22.483Z,5.95
2022-12-25T00:32:49.351Z,6.57
2022-12-25T00:35:16.260Z,6.63
2022-12-25T00:37:43.011Z,6.78
2022-12-25T00:40:10.514Z,6.82
2022-12-25T00:42:37.340Z,6.57
2022-12-25T00:45:05.844Z,6.55
2022-12-25T00:47:32.802Z,6.55
2022-12-25T00:49:59.629Z,7.30
2022-12-25T00:52:26.587Z,7.45
2022-12-25T00:54:53.331Z,7.10
2022-12-25T00:57:20.096Z,6.63
2022-12-25T00:59:46.958Z,6.53
2022-12-25T01:02:25.959Z,6.43
2022-12-25T01:04:56.936Z,6.53
2022-12-25T01:07:26.046Z,6.63
2022-12-25T01:10:11.399Z,6.93
2022-12-25T01:12:41.213Z,6.38
2022-12-25T01:15:09.919Z,6.28
2022-12-25T01:17:36.685Z,6.38
2022-12-25T01:20:04.303Z,7.05
2022-12-25T01:22:31.146Z,7.03
2022-12-25T01:24:58.154Z,7.25
2022-12-25T01:27:24.906Z,6.90
2022-12-25T01:29:51.654Z,8.15
2022-12-25T01:32:18.443Z,7.88
2022-12-25T01:34:49.272Z,6.85
2022-12-25T01:37:18.815Z,7.35
2022-12-25T01:39:45.594Z,7.70
2022-12-25T01:42:21.304Z,7.93
2022-12-25T01:44:48.576Z,8.20
2022-12-25T01:47:18.140Z,8.27
2022-12-25T01:49:49.893Z,8.27
2022-12-25T01:52:24.601Z,8.23
2022-12-25T01:54:58.374Z,7.95
2022-12-25T01:57:34.420Z,8.27
2022-12-25T02:00:01.922Z,8.55
2022-12-25T02:02:32.010Z,9.65
2022-12-25T02:05:07.763Z,8.93
2022-12-25T02:07:37.688Z,9.60
2022-12-25T02:10:04.815Z,9.77
2022-12-25T02:12:34.171Z,9.25
2022-12-25T02:15:24.747Z,9.57
2022-12-25T02:18:08.453Z,10.02
2022-12-25T02:20:47.167Z,10.25
2022-12-25T02:23:50.598Z,10.25
2022-12-25T02:26:42.319Z,9.85
2022-12-25T02:29:24.763Z,10.82
2022-12-25T02:32:16.565Z,10.50
2022-12-25T02:35:05.447Z,10.50
2022-12-25T02:37:43.842Z,10.18
2022-12-25T02:40:16.023Z,11.13
2022-12-25T02:43:14.787Z,9.27
2022-12-25T02:46:13.439Z,10.00
2022-12-25T02:49:09.028Z,10.07
2022-12-25T02:51:59.362Z,9.75
2022-12-25T02:54:53.085Z,9.93
2022-12-25T02:57:44.932Z,10.13
2022-12-25T03:00:32.023Z,10.35
2022-12-25T03:03:19.251Z,9.73
2022-12-25T03:06:05.332Z,10.10
2022-12-25T03:08:40.296Z,10.02
2022-12-25T03:11:30.126Z,9.05
2022-12-25T03:14:23.304Z,9.80
2022-12-25T03:16:56.337Z,9.20
2022-12-25T03:19:45.850Z,9.70
2022-12-25T03:22:53.340Z,10.68
2022-12-25T03:25:38.879Z,10.05
2022-12-25T03:28:06.600Z,10.43
2022-12-25T03:31:07.448Z,10.70
2022-12-25T03:34:11.091Z,9.95
2022-12-25T03:36:46.586Z,10.35
2022-12-25T03:39:45.157Z,10.25
2022-12-25T03:42:34.983Z,12.55
2022-12-25T03:45:43.392Z,11.60
2022-12-25T03:48:13.175Z,10.70
2022-12-25T03:51:10.362Z,12.00
2022-12-25T03:54:05.667Z,12.23
2022-12-25T03:56:52.767Z,13.48
2022-12-25T03:59:39.640Z,12.32
2022-12-25T04:02:25.079Z,13.05
2022-12-25T04:05:11.105Z,12.88
2022-12-25T04:07:56.426Z,12.55
2022-12-25T04:10:41.855Z,12.30
2022-12-25T04:13:26.968Z,12.85
2022-12-25T04:16:12.944Z,13.15
2022-12-25T04:18:58.368Z,12.82
2022-12-25T04:21:44.242Z,12.38
2022-12-25T04:24:30.135Z,13.07
2022-12-25T04:27:15.730Z,12.68
2022-12-25T04:30:01.394Z,13.20
2022-12-25T04:32:46.706Z,12.88
2022-12-25T04:35:32.207Z,12.80
2022-12-25T04:37:59.055Z,13.65
2022-12-25T04:40:26.329Z,12.50
2022-12-25T04:42:53.473Z,13.93
2022-12-25T04:45:20.283Z,13.68
2022-12-25T04:47:47.109Z,13.40
2022-12-25T04:50:13.880Z,12.98
2022-12-25T04:52:41.663Z,14.02
2022-12-25T04:55:09.717Z,14.65
2022-12-25T04:57:36.921Z,13.45
2022-12-25T05:00:05.808Z,13.10
2022-12-25T05:02:32.998Z,13.95
2022-12-25T05:05:00.306Z,13.50
2022-12-25T05:07:27.190Z,14.05
2022-12-25T05:09:54.017Z,12.52
2022-12-25T05:12:20.930Z,11.82
2022-12-25T05:14:47.756Z,13.38
2022-12-25T05:17:14.594Z,12.70
2022-12-25T05:19:42.331Z,13.07
2022-12-25T05:22:09.604Z,12.95
2022-12-25T05:24:36.362Z,12.02
2022-12-25T05:27:03.261Z,12.32
2022-12-25T05:29:30.096Z,12.63
2022-12-25T05:31:59.159Z,13.50
2022-12-25T05:34:25.910Z,13.73
2022-12-25T05:36:52.735Z,14.13
2022-12-25T05:39:19.696Z,12.93
2022-12-25T05:41:46.602Z,14.48
2022-12-25T05:44:13.376Z,14.07
2022-12-25T05:46:40.250Z,12.75
2022-12-25T05:49:07.200Z,12.93
2022-12-25T05:51:34.165Z,13.07
2022-12-25T05:54:01.333Z,12.82
2022-12-25T05:56:28.369Z,12.98
2022-12-25T05:58:55.168Z,13.75
2022-12-25T06:01:24.741Z,11.77
2022-12-25T06:03:51.819Z,12.50
2022-12-25T06:06:18.914Z,12.15
2022-12-25T06:08:46.160Z,12.90
2022-12-25T06:11:14.221Z,12.90
2022-12-25T06:13:41.529Z,14.20
2022-12-25T06:16:10.043Z,13.63
2022-12-25T06:18:39.162Z,12.90
2022-12-25T06:21:08.313Z,11.23
2022-12-25T06:23:35.792Z,10.57
2022-12-25T06:26:08.536Z,11.27
2022-12-25T06:28:35.433Z,10.77
2022-12-25T06:31:14.209Z,11.15
2022-12-25T06:33:42.023Z,11.25
2022-12-25T06:36:14.603Z,11.20
2022-12-25T06:38:42.236Z,11.18
2022-12-25T06:41:15.845Z,11.13
2022-12-25T06:43:44.042Z,11.35
2022-12-25T06:46:12.741Z,10.57
2022-12-25T06:48:41.474Z,10.35
2022-12-25T06:51:11.272Z,10.00
2022-12-25T06:53:40.315Z,10.98
2022-12-25T06:56:10.773Z,10.70
2022-12-25T06:58:37.716Z,9.73
2022-12-25T07:01:15.503Z,10.02
2022-12-25T07:03:44.985Z,10.38
2022-12-25T07:06:11.961Z,10.60
2022-12-25T07:08:39.125Z,10.13
2022-12-25T07:11:06.746Z,9.50
2022-12-25T07:13:33.847Z,10.43
2022-12-25T07:16:02.727Z,12.82
2022-12-25T07:18:30.004Z,12.35
2022-12-25T07:20:59.350Z,17.55
2022-12-25T07:23:26.888Z,16.60
2022-12-25T07:25:55.713Z,14.95
2022-12-25T07:28:22.635Z,12.98
2022-12-25T07:30:49.519Z,11.80
2022-12-25T07:33:16.529Z,14.52
2022-12-25T07:35:43.630Z,14.80
2022-12-25T07:38:10.758Z,13.32
2022-12-25T07:40:39.006Z,12.52
2022-12-25T07:43:05.799Z,9.93
2022-12-25T07:45:33.050Z,10.32
2022-12-25T07:48:05.001Z,10.77
2022-12-25T07:50:33.174Z,9.20
2022-12-25T07:52:59.980Z,9.05
2022-12-25T07:55:26.791Z,9.75
2022-12-25T07:57:53.634Z,9.55
2022-12-25T08:00:20.656Z,8.00
2022-12-25T08:02:50.857Z,8.50
2022-12-25T08:05:17.800Z,7.85
2022-12-25T08:07:44.598Z,7.35
2022-12-25T08:10:11.568Z,8.38
2022-12-25T08:12:38.329Z,8.73
2022-12-25T08:15:06.121Z,8.05
2022-12-25T08:17:35.224Z,8.43
2022-12-25T08:20:02.076Z,9.32
2022-12-25T08:22:28.830Z,9.68
2022-12-25T08:24:55.680Z,10.85
2022-12-25T08:27:22.523Z,12.02
2022-12-25T08:29:49.256Z,12.23
2022-12-25T08:32:16.095Z,12.52
2022-12-25T08:34:42.835Z,12.65
2022-12-25T08:37:09.671Z,12.73
2022-12-25T08:39:36.500Z,12.30
2022-12-25T08:42:03.315Z,13.40
2022-12-25T08:44:30.087Z,11.07
2022-12-25T08:46:56.819Z,9.82
2022-12-25T08:49:23.636Z,10.02
2022-12-25T08:51:50.514Z,10.02
2022-12-25T08:54:17.461Z,7.45
2022-12-25T08:56:44.253Z,7.95
2022-12-25T08:59:11.805Z,8.50
2022-12-25T09:01:38.778Z,8.32
2022-12-25T09:04:05.650Z,7.50
2022-12-25T09:06:32.768Z,8.13
2022-12-25T09:08:59.603Z,8.73
2022-12-25T09:11:26.374Z,7.40
2022-12-25T09:13:53.758Z,8.25
2022-12-25T09:16:21.885Z,8.20
2022-12-25T09:18:49.447Z,8.95
2022-12-25T09:21:17.229Z,7.13
2022-12-25T09:27:18.364Z,7.03
2022-12-25T09:29:45.352Z,6.65
2022-12-25T09:32:12.099Z,6.80
2022-12-25T09:34:38.886Z,6.40
2022-12-25T09:37:05.705Z,5.55
2022-12-25T09:39:32.473Z,5.88
2022-12-25T09:42:04.394Z,5.95
2022-12-25T09:44:37.421Z,5.25
2022-12-25T09:47:13.138Z,5.40
2022-12-25T09:49:58.855Z,4.68
2022-12-25T09:52:57.495Z,5.07
2022-12-25T09:55:26.856Z,5.22
2022-12-25T09:58:00.525Z,4.63
2022-12-25T10:00:47.323Z,4.10
2022-12-25T10:03:28.314Z,4.20
2022-12-25T10:06:02.082Z,4.07
2022-12-25T10:08:59.480Z,3.97
2022-12-25T10:11:45.876Z,3.13
2022-12-25T10:14:30.725Z,3.00
2022-12-25T10:17:26.981Z,3.00
2022-12-25T10:20:47.707Z,2.83
2022-12-25T10:23:44.435Z,2.95
2022-12-25T10:26:23.058Z,3.05
2022-12-25T10:29:11.165Z,2.60
2022-12-25T10:31:38.480Z,2.75
2022-12-25T10:34:07.300Z,2.35
2022-12-25T10:36:34.842Z,2.45
2022-12-25T10:39:02.017Z,1.95
2022-12-25T10:41:41.135Z,2.30
2022-12-25T10:44:20.561Z,1.95
2022-12-25T10:46:52.656Z,2.20
2022-12-25T10:49:22.164Z,1.98
2022-12-25T10:51:49.713Z,2.22
2022-12-25T10:54:27.289Z,2.17
2022-12-25T10:56:57.816Z,2.35
2022-12-25T10:59:29.970Z,1.98
2022-12-25T11:02:03.971Z,2.05
2022-12-25T11:04:35.832Z,2.00
2022-12-25T11:07:06.258Z,1.75
2022-12-25T11:09:33.917Z,1.73
2022-12-25T11:12:01.314Z,2.10
2022-12-25T11:14:29.156Z,1.90
2022-12-25T11:16:56.158Z,1.42
2022-12-25T11:19:29.729Z,1.83
2022-12-25T11:21:59.313Z,1.98
2022-12-25T11:24:29.099Z,1.83
2022-12-25T11:26:59.238Z,1.77
2022-12-25T11:29:49.119Z,1.63
2022-12-25T11:32:39.760Z,2.30
2022-12-25T11:35:13.524Z,1.85
2022-12-25T11:37:49.294Z,2.20
2022-12-25T11:40:19.178Z,2.13
2022-12-25T11:42:52.956Z,2.20
2022-12-25T11:45:39.226Z,1.65
2022-12-25T11:48:14.053Z,1.70
2022-12-25T11:50:57.200Z,1.50
2022-12-25T11:53:55.473Z,1.40
2022-12-25T11:56:25.377Z,1.50
2022-12-25T11:59:00.948Z,1.77
2022-12-25T12:02:07.549Z,1.83
2022-12-25T12:04:43.540Z,1.58
2022-12-25T12:07:26.694Z,1.35
2022-12-25T12:10:21.480Z,2.20
2022-12-25T12:13:06.410Z,3.53
2022-12-25T12:15:42.247Z,3.95
2022-12-25T12:18:27.112Z,1.60
2022-12-25T12:21:18.332Z,1.33
2022-12-25T12:23:54.349Z,1.30
2022-12-25T12:26:25.063Z,1.45
2022-12-25T12:28:55.221Z,1.75
2022-12-25T12:31:22.684Z,1.20
2022-12-25T12:33:54.401Z,1.10
2022-12-25T12:36:35.655Z,1.40
2022-12-25T12:39:05.903Z,1.00
2022-12-25T12:41:45.721Z,1.10
2022-12-25T12:44:14.371Z,1.02
2022-12-25T12:46:54.612Z,1.33
2022-12-25T12:49:21.672Z,1.17
2022-12-25T12:51:49.296Z,1.00
2022-12-25T12:54:26.183Z,0.90
2022-12-25T12:56:56.705Z,1.20
2022-12-25T12:59:25.163Z,0.80
2022-12-25T13:02:14.851Z,1.20
2022-12-25T13:05:14.759Z,1.20
2022-12-25T13:08:31.408Z,1.02
2022-12-25T13:11:17.136Z,0.90
2022-12-25T13:13:47.188Z,1.17
2022-12-25T13:16:20.962Z,1.00
2022-12-25T13:18:48.308Z,1.10
2022-12-25T13:21:20.661Z,1.30
2022-12-25T13:23:47.652Z,1.48
2022-12-25T13:26:17.096Z,1.05
2022-12-25T13:28:47.290Z,0.93
2022-12-25T13:31:14.348Z,1.50
2022-12-25T13:33:46.585Z,1.02
2022-12-25T13:36:15.055Z,0.85
2022-12-25T13:38:51.406Z,1.02
2022-12-25T13:41:39.121Z,1.38
2022-12-25T13:44:23.752Z,2.80
2022-12-25T13:46:50.690Z,0.60
2022-12-25T13:49:23.798Z,0.50
2022-12-25T13:51:51.527Z,1.00
2022-12-25T13:54:18.882Z,1.30
2022-12-25T13:56:49.614Z,1.08
2022-12-25T13:59:18.794Z,1.80
2022-12-25T14:01:46.528Z,1.13
2022-12-25T14:04:23.216Z,1.35
2022-12-25T14:06:51.738Z,1.20
2022-12-25T14:09:19.380Z,1.27
2022-12-25T14:11:51.137Z,0.80
2022-12-25T14:14:25.946Z,0.80
2022-12-25T14:16:56.912Z,0.60
2022-12-25T14:19:28.177Z,0.90
2022-12-25T14:22:21.062Z,1.00
2022-12-25T14:24:48.603Z,0.80
2022-12-25T14:27:28.371Z,1.55
2022-12-25T14:29:58.703Z,1.40
2022-12-25T14:32:28.770Z,1.95
2022-12-25T14:34:59.814Z,2.88
2022-12-25T14:37:30.605Z,2.90
2022-12-25T14:40:05.190Z,3.13
2022-12-25T14:42:35.188Z,3.00
2022-12-25T14:45:33.562Z,1.95
2022-12-25T14:48:24.568Z,1.65
2022-12-25T14:51:00.336Z,1.40
2022-12-25T14:53:53.226Z,1.77
2022-12-25T14:56:22.995Z,2.08
2022-12-25T14:58:55.714Z,2.50
2022-12-25T15:01:38.509Z,3.08
2022-12-25T15:04:17.437Z,3.00
2022-12-25T15:07:07.020Z,3.00
2022-12-25T15:09:35.967Z,3.13
2022-12-25T15:12:03.045Z,3.60
2022-12-25T15:14:31.749Z,3.83
2022-12-25T15:17:01.441Z,4.22
2022-12-25T15:19:37.411Z,4.53
2022-12-25T15:22:05.914Z,5.07
2022-12-25T15:24:33.189Z,5.25
2022-12-25T15:27:00.848Z,5.00
2022-12-25T15:32:22.262Z,6.28
2022-12-25T15:34:50.362Z,7.05
2022-12-25T15:37:19.056Z,7.05
2022-12-25T15:39:46.810Z,7.30
2022-12-25T15:42:16.249Z,7.38
2022-12-25T15:44:45.170Z,11.52
2022-12-25T15:47:13.580Z,9.85
2022-12-25T15:49:41.113Z,11.60
2022-12-25T15:52:11.413Z,19.35
2022-12-25T15:54:38.431Z,11.70
2022-12-25T15:57:07.342Z,19.25
2022-12-25T15:59:34.479Z,11.07
2022-12-25T16:02:02.268Z,11.70
2022-12-25T16:04:31.315Z,14.00
2022-12-25T16:06:59.690Z,12.82
2022-12-25T16:09:27.651Z,13.65
2022-12-25T16:11:54.459Z,14.23
2022-12-25T16:14:21.911Z,13.70
2022-12-25T16:16:48.873Z,12.90
2022-12-25T16:19:15.669Z,15.52
2022-12-25T16:21:45.032Z,15.43
2022-12-25T16:24:12.570Z,13.73
2022-12-25T16:26:39.989Z,13.73
2022-12-25T16:29:07.772Z,14.52
2022-12-25T16:31:36.700Z,15.68
2022-12-25T16:34:04.899Z,14.02
2022-12-25T16:36:32.413Z,14.27
2022-12-25T16:38:59.622Z,15.90
2022-12-25T16:41:26.712Z,15.05
2022-12-25T16:43:53.832Z,14.30
2022-12-25T16:46:22.363Z,15.30
2022-12-25T16:48:49.558Z,14.07
2022-12-25T16:51:19.893Z,13.55
2022-12-25T16:53:47.503Z,14.15
2022-12-25T16:56:16.512Z,14.98
2022-12-25T16:58:46.604Z,13.48
2022-12-25T17:01:16.712Z,16.90
2022-12-25T17:03:43.626Z,14.63
2022-12-25T17:06:20.501Z,13.85
2022-12-25T17:08:47.414Z,14.60
2022-12-25T17:11:14.986Z,13.93
2022-12-25T17:13:45.922Z,12.95
2022-12-25T17:16:24.864Z,14.45
2022-12-25T17:19:04.162Z,14.25
2022-12-25T17:21:35.287Z,14.05
2022-12-25T17:24:04.228Z,14.20
2022-12-25T17:26:32.707Z,13.18
2022-12-25T17:29:00.219Z,12.95
2022-12-25T17:31:27.369Z,13.15
2022-12-25T17:33:54.222Z,12.68
2022-12-25T17:36:22.391Z,12.13
2022-12-25T17:38:49.457Z,12.70
2022-12-25T17:41:17.957Z,12.30
2022-12-25T17:43:45.803Z,12.30
2022-12-25T17:46:21.755Z,13.50
2022-12-25T17:48:50.143Z,11.95
2022-12-25T17:51:19.706Z,11.90
2022-12-25T17:53:48.992Z,10.77
2022-12-25T17:56:16.791Z,11.23
2022-12-25T17:58:44.230Z,10.18
2022-12-25T18:01:15.497Z,9.35
2022-12-25T18:03:44.279Z,9.30
2022-12-25T18:06:14.452Z,7.55
2022-12-25T18:08:42.283Z,7.80
2022-12-25T18:11:15.428Z,6.97
2022-12-25T18:13:44.959Z,6.65
2022-12-25T18:16:13.149Z,6.00
2022-12-25T18:18:44.078Z,5.07
2022-12-25T18:21:14.710Z,4.43
2022-12-25T18:23:41.515Z,4.68
2022-12-25T18:26:11.939Z,7.97
2022-12-25T18:28:39.550Z,5.90
2022-12-25T18:31:22.122Z,4.57
2022-12-25T18:33:49.499Z,5.30
2022-12-25T18:36:20.119Z,5.63
2022-12-25T18:38:48.948Z,4.63
2022-12-25T18:41:16.343Z,4.03
2022-12-25T18:43:52.654Z,4.10
2022-12-25T18:46:24.887Z,3.78
2022-12-25T18:48:53.044Z,3.60
2022-12-25T18:51:19.841Z,3.70
2022-12-25T18:53:46.747Z,3.35
2022-12-25T18:56:17.190Z,3.13
2022-12-25T18:58:44.548Z,4.53
2022-12-25T19:01:23.280Z,3.67
2022-12-25T19:03:51.411Z,4.18
2022-12-25T19:06:19.564Z,3.55
2022-12-25T19:08:46.438Z,4.20
2022-12-25T19:11:13.627Z,3.60
2022-12-25T19:13:40.377Z,4.22
2022-12-25T19:16:07.350Z,2.83
2022-12-25T19:18:34.119Z,3.95
2022-12-25T19:21:03.817Z,3.47
2022-12-25T19:23:30.795Z,4.88
2022-12-25T19:25:57.602Z,4.93
2022-12-25T19:28:25.150Z,4.07
2022-12-25T19:30:55.207Z,4.07
2022-12-25T19:33:22.762Z,4.88
2022-12-25T19:35:50.228Z,3.58
2022-12-25T19:38:17.130Z,3.03
2022-12-25T19:41:00.424Z,3.55
2022-12-25T19:43:41.962Z,4.40
2022-12-25T19:46:15.666Z,2.70
2022-12-25T19:48:43.072Z,3.28
2022-12-25T19:51:24.035Z,3.30
2022-12-25T19:53:51.406Z,2.97
2022-12-25T19:56:19.083Z,3.50
2022-12-25T19:58:45.908Z,4.30
2022-12-25T20:01:15.471Z,4.85
2022-12-25T20:03:46.339Z,5.50
2022-12-25T20:06:26.252Z,6.10
2022-12-25T20:08:56.272Z,5.72
2022-12-25T20:11:25.009Z,5.32
2022-12-25T20:13:51.872Z,5.40
2022-12-25T20:16:18.800Z,5.47
2022-12-25T20:18:45.875Z,4.68
2022-12-25T20:21:15.993Z,6.00
2022-12-25T20:23:44.380Z,5.70
2022-12-25T20:26:12.624Z,6.72
2022-12-25T20:28:41.694Z,6.20
2022-12-25T20:31:12.801Z,6.80
2022-12-25T20:33:39.623Z,7.07
2022-12-25T20:36:07.263Z,8.00
2022-12-25T20:38:35.053Z,7.28
2022-12-25T20:43:54.395Z,8.27
2022-12-25T20:46:22.871Z,8.30
2022-12-25T20:48:49.900Z,9.20
2022-12-25T20:51:19.433Z,9.90
2022-12-25T20:53:47.467Z,9.32
2022-12-25T20:56:17.703Z,10.45
2022-12-25T20:58:44.807Z,9.85
2022-12-25T21:01:14.471Z,10.48
2022-12-25T21:03:41.760Z,10.30
2022-12-25T21:06:09.442Z,10.82
2022-12-25T21:08:36.914Z,11.95
2022-12-25T21:11:05.254Z,12.40
2022-12-25T21:13:37.735Z,11.05
2022-12-25T21:16:06.938Z,11.30
2022-12-25T21:18:34.136Z,11.90
2022-12-25T21:21:05.429Z,12.75
2022-12-25T21:23:36.870Z,13.23
2022-12-25T21:26:18.357Z,12.43
2022-12-25T21:28:46.674Z,13.40
2022-12-25T21:31:13.531Z,13.80
2022-12-25T21:33:52.497Z,14.88
2022-12-25T21:36:28.440Z,14.88
2022-12-25T21:39:05.003Z,16.73
2022-12-25T21:41:33.229Z,16.13
2022-12-25T21:44:00.365Z,17.17
2022-12-25T21:46:27.953Z,17.27
2022-12-25T21:48:55.307Z,19.20
2022-12-25T21:51:46.589Z,19.20
2022-12-25T21:54:14.480Z,19.02
2022-12-25T21:56:44.789Z,17.60
2022-12-25T21:59:18.455Z,18.42
2022-12-25T22:01:45.957Z,18.63
2022-12-25T22:04:14.365Z,16.13
2022-12-25T22:07:00.260Z,17.98
2022-12-25T22:09:27.758Z,18.00
2022-12-25T22:12:13.353Z,17.30
2022-12-25T22:14:52.244Z,17.08
2022-12-25T22:17:42.611Z,18.58
2022-12-25T22:20:21.799Z,19.25
2022-12-25T22:22:49.021Z,18.23
2022-12-25T22:25:17.568Z,18.95
2022-12-25T22:27:46.294Z,18.45
2022-12-25T22:30:23.944Z,19.13
2022-12-25T22:32:52.238Z,18.17
2022-12-25T22:35:19.422Z,18.58
2022-12-25T22:37:46.824Z,18.05
2022-12-25T22:40:16.721Z,17.60
2022-12-25T22:42:43.747Z,17.77
2022-12-25T22:45:11.263Z,17.63
2022-12-25T22:47:38.103Z,18.35
2022-12-25T22:50:05.426Z,17.52
2022-12-25T22:52:32.239Z,17.50
2022-12-25T22:54:59.048Z,17.35
2022-12-25T22:57:25.803Z,17.83
2022-12-25T22:59:53.019Z,17.20
2022-12-25T23:02:20.309Z,16.45
2022-12-25T23:04:47.230Z,16.92
2022-12-25T23:07:15.130Z,15.70
2022-12-25T23:09:43.568Z,15.68
2022-12-25T23:12:30.826Z,15.57
2022-12-25T23:14:57.827Z,15.00
2022-12-25T23:17:43.874Z,14.82
2022-12-25T23:20:32.654Z,13.48
2022-12-25T23:23:18.077Z,14.35
2022-12-25T23:26:03.831Z,14.32
2022-12-25T23:28:49.034Z,13.77
2022-12-25T23:31:15.904Z,14.90
2022-12-25T23:33:42.749Z,14.52
2022-12-25T23:36:10.133Z,14.48
2022-12-25T23:38:36.963Z,14.70
2022-12-25T23:41:03.847Z,13.70
2022-12-25T23:43:30.833Z,13.55
2022-12-25T23:45:57.613Z,13.80
2022-12-25T23:48:24.372Z,12.88
2022-12-25T23:50:51.285Z,12.25
2022-12-25T23:53:18.274Z,13.23
2022-12-25T23:55:48.652Z,13.88
2022-12-25T23:58:18.403Z,13.77
